Time;durP1;ratioP1;P1;durP2;ratioP2;P2;SDS_P1;SDS_P2;PMS_P1;PMS_P2;Temp;Humidity;BMP_temperature;BMP_pressure;BME280_temperature;BME280_humidity;BME280_pressure;Samples;Min_cycle;Max_cycle;Signal;HPM_P1;HPM_P2
2022/06/13 05:33:55;;;;;;;5.40;2.10;;;;;;;18.25;88.44;99271.41;5131094;27;20349;-81
2022/06/13 05:36:24;;;;;;;8.27;2.20;;;;;;;18.44;87.69;99266.69;5131146;27;20510;-82
2022/06/13 05:38:53;;;;;;;7.90;2.70;;;;;;;19.02;89.76;99293.56;5131752;27;20047;-81
2022/06/13 05:41:20;;;;;;;10.23;2.42;;;;;;;19.58;83.26;99293.22;5124190;27;20397;-81
2022/06/13 05:43:47;;;;;;;7.53;2.42;;;;;;;19.66;81.15;99298.38;5130188;28;20129;-81
2022/06/13 05:46:18;;;;;;;10.77;2.28;;;;;;;19.64;82.55;99306.88;5128626;28;20069;-82
2022/06/13 05:48:45;;;;;;;5.15;1.95;;;;;;;19.43;75.47;99290.94;5131208;27;20058;-81
2022/06/13 05:51:13;;;;;;;7.72;3.20;;;;;;;19.59;82.76;99292.97;5131373;27;20055;-80
2022/06/13 05:53:39;;;;;;;5.97;2.78;;;;;;;19.63;82.16;99271.28;5130912;27;20516;-82
2022/06/13 05:56:06;;;;;;;6.53;2.17;;;;;;;19.93;81.25;99289.59;5131319;27;20146;-82
2022/06/13 05:58:33;;;;;;;7.88;2.28;;;;;;;19.89;77.15;99296.72;5127551;27;20050;-81
2022/06/13 06:01:01;;;;;;;5.45;2.03;;;;;;;20.36;78.16;99315.06;5131150;28;20047;-79
2022/06/13 06:03:29;;;;;;;3.88;1.80;;;;;;;20.32;68.32;99317.44;5131036;27;20047;-80
2022/06/13 06:05:57;;;;;;;5.95;1.83;;;;;;;20.01;67.95;99321.50;5110458;28;20491;-80
2022/06/13 06:08:27;;;;;;;5.25;1.90;;;;;;;19.24;71.70;99321.41;5110209;28;20143;-80
2022/06/13 06:10:56;;;;;;;7.70;1.80;;;;;;;19.49;72.06;99325.81;5110059;28;20048;-81
2022/06/13 06:13:23;;;;;;;8.88;2.00;;;;;;;19.66;69.91;99314.94;5114187;28;20414;-80
2022/06/13 06:15:50;;;;;;;7.00;1.90;;;;;;;20.32;69.15;99332.13;5115119;28;20081;-80
2022/06/13 06:18:18;;;;;;;5.93;2.08;;;;;;;20.49;64.18;99331.34;5122973;27;20406;-81
2022/06/13 06:20:45;;;;;;;5.22;1.73;;;;;;;20.18;61.20;99316.91;5117025;27;20046;-80
2022/06/13 06:23:13;;;;;;;9.18;1.98;;;;;;;20.34;62.50;99318.91;5118185;27;20475;-80
2022/06/13 06:25:42;;;;;;;9.77;2.13;;;;;;;20.30;63.32;99339.78;5122648;27;20651;-80
2022/06/13 06:28:10;;;;;;;6.50;1.58;;;;;;;20.47;59.37;99316.91;5129987;27;20528;-79
2022/06/13 06:30:38;;;;;;;5.00;1.92;;;;;;;20.47;59.07;99319.69;5114381;27;20048;-77
2022/06/13 06:33:07;;;;;;;5.25;1.42;;;;;;;20.06;59.14;99318.84;5123515;28;20060;-79
2022/06/13 06:35:35;;;;;;;4.43;1.85;;;;;;;20.61;62.10;99336.78;5130626;27;20131;-79
2022/06/13 06:38:02;;;;;;;6.00;1.40;;;;;;;20.41;58.77;99335.31;5128962;27;20048;-79
2022/06/13 06:40:29;;;;;;;7.97;1.55;;;;;;;20.60;58.29;99351.72;5110055;28;20115;-78
2022/06/13 06:42:57;;;;;;;5.13;1.70;;;;;;;20.48;57.57;99347.06;5109184;28;20050;-77
2022/06/13 06:45:25;;;;;;;4.53;1.65;;;;;;;20.59;54.85;99347.25;5095297;28;20055;-78
2022/06/13 06:47:52;;;;;;;4.90;1.42;;;;;;;20.94;54.02;99340.75;5096361;28;20040;-78
2022/06/13 06:50:22;;;;;;;2.47;1.23;;;;;;;20.32;55.52;99345.06;5096288;28;20059;-77
2022/06/13 06:52:49;;;;;;;5.97;1.42;;;;;;;20.43;56.12;99338.69;5095900;28;20048;-77
2022/06/13 07:00:48;;;;;;;7.15;1.60;;;;;;;21.14;54.76;99351.34;5104697;28;20054;-78
2022/06/13 07:03:14;;;;;;;7.20;1.45;;;;;;;20.93;53.79;99366.72;5097643;28;20051;-79
2022/06/13 07:05:41;;;;;;;4.15;1.70;;;;;;;21.22;53.48;99356.44;5095987;28;20044;-78
2022/06/13 07:08:08;;;;;;;5.80;1.98;;;;;;;20.71;52.60;99352.78;5095727;28;20055;-79
2022/06/13 07:10:35;;;;;;;5.63;1.48;;;;;;;20.69;54.03;99355.78;5095817;28;20055;-79
2022/06/13 07:13:01;;;;;;;6.22;1.95;;;;;;;21.17;53.13;99353.59;5095399;28;20044;-78
2022/06/13 07:15:29;;;;;;;7.70;1.88;;;;;;;21.15;52.08;99359.38;5098240;28;20071;-79
2022/06/13 07:17:56;;;;;;;5.75;2.08;;;;;;;21.08;53.34;99355.13;5097185;28;20052;-80
2022/06/13 07:20:22;;;;;;;3.88;1.60;;;;;;;21.42;51.84;99360.66;5099174;28;20055;-79
2022/06/13 07:22:50;;;;;;;5.45;1.92;;;;;;;21.54;52.13;99361.44;5095568;28;20051;-79
2022/06/13 07:25:20;;;;;;;7.45;1.70;;;;;;;21.85;52.11;99362.72;5095642;28;20414;-79
2022/06/13 07:27:46;;;;;;;10.55;2.25;;;;;;;21.69;52.40;99358.91;5098032;28;20048;-80
2022/06/13 07:30:14;;;;;;;6.10;2.17;;;;;;;21.55;50.75;99352.88;5095177;28;20052;-78
2022/06/13 07:32:43;;;;;;;5.35;1.42;;;;;;;21.69;51.47;99360.81;5096455;28;20128;-80
2022/06/13 07:35:12;;;;;;;3.27;1.57;;;;;;;21.58;49.44;99354.31;5115742;28;20054;-81
2022/06/13 07:40:23;;;;;;;5.35;1.40;;;;;;;21.19;52.76;99382.66;5115895;28;20512;-80
2022/06/13 07:42:52;;;;;;;5.65;1.65;;;;;;;21.13;51.36;99380.06;5104237;28;20130;-79
2022/06/13 07:45:22;;;;;;;7.40;1.60;;;;;;;21.67;50.35;99377.69;5095175;28;20058;-79
2022/06/13 07:47:51;;;;;;;7.30;2.17;;;;;;;21.61;50.56;99372.34;5094645;28;20056;-79
2022/06/13 07:50:21;;;;;;;7.43;1.77;;;;;;;22.01;48.88;99369.34;5114565;28;20151;-80
2022/06/13 07:52:47;;;;;;;5.13;1.48;;;;;;;22.29;49.50;99375.78;5115199;28;20075;-80
2022/06/13 07:55:14;;;;;;;5.07;1.73;;;;;;;22.28;47.44;99374.97;5113260;28;20075;-78
2022/06/13 07:57:42;;;;;;;5.82;1.60;;;;;;;22.58;47.87;99373.69;5106638;28;20059;-81
2022/06/13 08:00:14;;;;;;;7.70;2.17;;;;;;;22.34;47.65;99377.81;5094919;28;20040;-82
2022/06/13 08:02:40;;;;;;;6.00;1.75;;;;;;;22.16;47.68;99388.09;5094840;28;20060;-79
2022/06/13 08:05:09;;;;;;;7.72;1.60;;;;;;;22.46;47.04;99372.97;5094412;28;20070;-80
2022/06/13 08:07:36;;;;;;;6.25;2.42;;;;;;;23.26;46.39;99392.75;5094471;28;20052;-82
2022/06/13 08:10:02;;;;;;;10.45;1.77;;;;;;;22.72;46.46;99396.31;5094624;28;20043;-81
2022/06/13 08:12:29;;;;;;;5.72;1.50;;;;;;;22.89;46.10;99398.16;5108024;28;20058;-81
2022/06/13 08:14:55;;;;;;;5.55;1.42;;;;;;;22.57;46.94;99393.34;5095026;28;20495;-82
2022/06/13 08:17:23;;;;;;;5.47;1.77;;;;;;;22.04;48.76;99398.41;5094359;28;20056;-82
2022/06/13 08:19:51;;;;;;;8.07;2.00;;;;;;;21.91;51.19;99383.03;5105636;28;20052;-81
2022/06/13 08:22:20;;;;;;;4.53;1.50;;;;;;;22.10;49.47;99402.97;5114550;28;20120;-81
2022/06/13 08:24:46;;;;;;;8.52;1.73;;;;;;;21.26;50.07;99396.34;5114939;28;20051;-82
2022/06/13 08:27:13;;;;;;;9.75;1.75;;;;;;;21.06;52.34;99396.78;5114784;28;20047;-81
2022/06/13 08:29:39;;;;;;;4.45;1.45;;;;;;;20.75;52.42;99401.75;5114853;28;20437;-81
2022/06/13 08:32:07;;;;;;;6.68;1.50;;;;;;;20.79;51.40;99402.09;5108569;28;20048;-81
2022/06/13 08:34:33;;;;;;;6.30;1.70;;;;;;;20.90;51.33;99408.69;5093797;28;20036;-81
2022/06/13 08:37:00;;;;;;;6.22;1.80;;;;;;;20.97;50.71;99399.16;5092700;28;20388;-82
2022/06/13 08:39:28;;;;;;;5.55;1.70;;;;;;;20.99;50.10;99404.41;5094376;28;20051;-82
2022/06/13 08:41:59;;;;;;;7.63;1.90;;;;;;;21.00;52.66;99392.25;5094079;28;20044;-83
2022/06/13 08:44:42;;;;;;;4.78;1.55;;;;;;;21.70;49.76;99391.00;5094408;28;20728;-81
2022/06/13 08:47:21;;;;;;;5.57;1.73;;;;;;;21.76;50.71;99394.69;5093932;28;20051;-83
2022/06/13 08:49:57;;;;;;;3.78;2.00;;;;;;;21.18;49.77;99388.44;5094769;28;20472;-83
2022/06/13 08:52:28;;;;;;;7.35;1.92;;;;;;;21.83;50.26;99411.97;5093717;28;20055;-83
2022/06/13 08:55:09;;;;;;;6.65;2.13;;;;;;;22.18;49.22;99380.34;5093482;28;20055;-83
2022/06/13 08:57:37;;;;;;;6.63;1.80;;;;;;;22.13;49.40;99399.69;5093667;28;20414;-83
2022/06/13 09:00:08;;;;;;;9.50;2.22;;;;;;;22.25;47.88;99405.06;5094051;28;20051;-83
2022/06/13 09:02:43;;;;;;;6.30;2.05;;;;;;;22.27;53.15;99414.00;5093522;28;20054;-83
2022/06/13 09:05:14;;;;;;;4.72;1.70;;;;;;;22.02;50.80;99414.44;5094247;28;20074;-83
2022/06/13 09:07:47;;;;;;;9.38;1.90;;;;;;;21.99;52.22;99421.31;5093579;28;20048;-83
2022/06/13 09:10:25;;;;;;;10.52;2.28;;;;;;;22.31;53.05;99408.75;5093832;28;20056;-84
2022/06/13 09:12:57;;;;;;;8.20;2.30;;;;;;;22.41;50.95;99395.91;5109416;28;20059;-84
2022/06/13 09:15:28;;;;;;;6.05;1.85;;;;;;;22.86;47.74;99402.28;5093832;28;20471;-83
2022/06/13 09:18:01;;;;;;;6.05;1.60;;;;;;;23.44;47.01;99410.94;5093773;28;20059;-83
2022/06/13 09:20:33;;;;;;;10.35;2.17;;;;;;;23.48;49.23;99405.69;5093811;28;20406;-83
2022/06/13 09:23:04;;;;;;;6.50;1.95;;;;;;;22.70;47.12;99412.38;5093624;28;20080;-83
2022/06/13 09:25:40;;;;;;;7.20;1.75;;;;;;;22.44;46.04;99395.41;5100531;28;20053;-83
2022/06/13 09:28:14;;;;;;;6.57;2.20;;;;;;;22.44;48.64;99405.66;5114159;28;20052;-83
2022/06/13 09:30:55;;;;;;;8.68;1.63;;;;;;;21.63;47.83;99403.34;5114138;28;20487;-83
2022/06/13 09:34:17;;;;;;;8.75;1.80;;;;;;;21.25;47.43;99422.31;5113375;28;20051;-83
2022/06/13 09:40:00;;;;;;;5.68;2.50;;;;;;;21.82;46.43;99401.97;5031395;28;20061;-81
2022/06/13 09:42:41;;;;;;;6.72;2.63;;;;;;;21.64;46.64;99429.91;5046748;28;20056;-83
2022/06/13 09:45:39;;;;;;;9.23;2.40;;;;;;;22.05;46.53;99425.00;5092431;28;20040;-83
2022/06/13 09:55:46;;;;;;;4.82;1.30;;;;;;;23.47;39.28;99417.88;5030817;28;20428;-85
2022/06/13 09:58:38;;;;;;;6.25;1.35;;;;;;;23.45;43.32;99392.34;5043038;28;20559;-83
2022/06/13 10:01:09;;;;;;;10.80;2.00;;;;;;;23.13;38.74;99407.03;5073178;28;20059;-83
2022/06/13 10:03:47;;;;;;;4.47;1.65;;;;;;;23.04;39.84;99411.34;5072825;28;20052;-82
2022/06/13 10:06:22;;;;;;;4.22;1.48;;;;;;;23.19;39.78;99408.75;5070817;28;20420;-80
2022/06/13 10:09:03;;;;;;;6.88;1.65;;;;;;;23.46;41.38;99416.22;5072474;28;20063;-85
2022/06/13 10:11:41;;;;;;;4.80;1.73;;;;;;;23.49;38.60;99401.81;5073300;28;20059;-84
2022/06/13 10:14:40;;;;;;;5.70;2.20;;;;;;;23.24;40.82;99405.19;5072665;28;20054;-83
2022/06/13 10:17:19;;;;;;;7.35;2.08;;;;;;;22.54;40.85;99391.94;5073300;28;20395;-84
2022/06/13 10:19:57;;;;;;;3.63;1.50;;;;;;;22.17;41.40;99403.59;5075301;28;20044;-84
2022/06/13 10:22:35;;;;;;;8.10;1.40;;;;;;;22.17;42.53;99411.06;5078540;28;20472;-83
2022/06/13 10:25:15;;;;;;;4.38;1.60;;;;;;;22.43;39.83;99401.19;5096758;28;20048;-85
2022/06/13 10:27:52;;;;;;;5.00;1.40;;;;;;;22.91;38.94;99432.84;5097063;28;20052;-84
2022/06/13 10:30:36;;;;;;;8.20;1.95;;;;;;;23.00;41.61;99408.22;5097095;28;20054;-83
2022/06/13 10:33:18;;;;;;;3.47;1.27;;;;;;;22.92;39.37;99409.53;5096410;28;20047;-84
2022/06/13 10:35:49;;;;;;;9.27;1.70;;;;;;;22.82;34.78;99414.97;5095136;28;20040;-82
2022/06/13 10:38:28;;;;;;;4.82;1.30;;;;;;;22.36;37.35;99411.66;5096781;28;20094;-81
2022/06/13 10:40:55;;;;;;;4.37;1.50;;;;;;;22.52;38.00;99407.13;5096554;28;20050;-81
2022/06/13 10:43:22;;;;;;;6.25;1.60;;;;;;;22.91;38.92;99423.66;5096033;28;20094;-84
2022/06/13 10:45:50;;;;;;;6.50;1.77;;;;;;;23.39;39.22;99418.38;5096798;28;20055;-84
2022/06/13 10:48:24;;;;;;;4.32;1.23;;;;;;;23.48;39.44;99419.56;5093700;28;20693;-84
2022/06/13 10:50:54;;;;;;;6.10;1.13;;;;;;;23.32;35.57;99404.72;5096814;28;20044;-82
2022/06/13 10:53:25;;;;;;;3.08;0.93;;;;;;;22.94;36.00;99412.91;5095721;28;20050;-84
2022/06/13 10:55:55;;;;;;;3.25;1.05;;;;;;;23.41;37.07;99416.16;5096395;28;20052;-82
2022/06/13 10:58:26;;;;;;;3.83;1.40;;;;;;;23.76;35.46;99423.94;5087279;28;20051;-83
2022/06/13 11:01:08;;;;;;;3.47;0.88;;;;;;;23.27;33.01;99418.53;5076123;28;20059;-85
2022/06/13 11:03:35;;;;;;;2.85;1.10;;;;;;;23.20;37.24;99435.38;5075593;28;20483;-85
2022/06/13 11:06:04;;;;;;;3.15;1.00;;;;;;;23.70;38.31;99427.78;5075977;28;20452;-83
2022/06/13 11:08:32;;;;;;;3.27;1.30;;;;;;;23.93;36.01;99418.28;5075912;28;20105;-84
2022/06/13 11:11:01;;;;;;;4.70;1.67;;;;;;;23.96;35.43;99412.19;5075864;28;20040;-83
2022/06/13 11:13:30;;;;;;;3.23;1.17;;;;;;;23.84;35.86;99422.63;5075058;28;20049;-82
2022/06/13 11:24:30;;;;;;;8.65;1.77;;;;;;;23.79;35.44;99420.66;5075348;28;20093;-83
2022/06/13 11:29:42;;;;;;;4.78;1.42;;;;;;;24.43;37.33;99415.22;5075582;28;20427;-83
2022/06/13 11:32:20;;;;;;;8.80;1.70;;;;;;;24.43;35.88;99420.78;5085005;28;20048;-84
2022/06/13 11:34:48;;;;;;;8.05;1.70;;;;;;;24.57;34.83;99396.97;5095547;28;20048;-84
2022/06/13 11:37:19;;;;;;;3.67;0.95;;;;;;;25.06;34.25;99423.56;5095970;28;20097;-83
2022/06/13 11:39:49;;;;;;;2.13;0.93;;;;;;;25.11;35.03;99423.56;5095838;28;20052;-85
2022/06/13 11:42:19;;;;;;;3.22;1.40;;;;;;;24.78;33.19;99392.34;5095160;28;20048;-83
2022/06/13 11:44:53;;;;;;;10.35;1.52;;;;;;;25.25;33.85;99430.25;5093660;28;20059;-83
2022/06/13 11:47:25;;;;;;;2.58;1.20;;;;;;;24.94;33.70;99426.56;5095359;28;20044;-84
2022/06/13 11:49:58;;;;;;;3.60;1.20;;;;;;;24.68;33.43;99420.94;5095497;28;20087;-84
2022/06/13 11:55:36;;;;;;;6.68;1.73;;;;;;;24.57;34.48;99405.31;5094733;28;20063;-85
2022/06/13 11:58:05;;;;;;;2.50;0.95;;;;;;;24.86;34.32;99427.94;5093634;28;20471;-85
2022/06/13 12:00:36;;;;;;;3.10;1.10;;;;;;;24.84;33.67;99416.28;5095352;28;20051;-84
2022/06/13 12:03:19;;;;;;;4.53;1.20;;;;;;;25.29;33.69;99418.59;5095027;28;20058;-84
2022/06/13 12:05:50;;;;;;;6.97;1.38;;;;;;;25.43;31.98;99397.50;5095259;28;20048;-86
2022/06/13 12:08:24;;;;;;;4.97;1.27;;;;;;;24.36;34.67;99402.44;5094992;28;20044;-84
2022/06/13 12:11:09;;;;;;;2.30;1.25;;;;;;;24.12;35.24;99415.09;5094916;28;20083;-85
2022/06/13 12:13:40;;;;;;;4.75;1.13;;;;;;;23.27;35.15;99394.38;5074653;28;20056;-85
2022/06/13 12:16:20;;;;;;;4.63;2.05;;;;;;;23.41;35.92;99416.16;5075216;28;20454;-86
2022/06/13 12:18:55;;;;;;;1.90;1.10;;;;;;;24.19;34.13;99405.41;5073844;28;20480;-84
2022/06/13 12:21:32;;;;;;;4.43;1.75;;;;;;;24.79;33.57;99413.47;5074659;28;20102;-82
2022/06/13 12:24:18;;;;;;;3.70;1.27;;;;;;;24.16;33.29;99417.06;5074134;28;20139;-83
2022/06/13 12:27:02;;;;;;;5.45;1.40;;;;;;;23.29;35.39;99421.88;5080546;28;20051;-83
2022/06/13 12:29:45;;;;;;;6.05;1.92;;;;;;;23.48;35.56;99423.16;5094816;28;20051;-83
2022/06/13 12:32:17;;;;;;;3.30;1.25;;;;;;;23.81;36.10;99396.22;5094793;28;20056;-84
2022/06/13 12:34:57;;;;;;;5.38;1.80;;;;;;;24.32;33.91;99412.41;5094731;28;20456;-85
2022/06/13 12:37:35;;;;;;;2.85;1.20;;;;;;;24.36;32.88;99401.59;5102985;28;20054;-87
2022/06/13 12:40:18;;;;;;;7.65;1.73;;;;;;;24.40;32.45;99419.38;5103716;28;20249;-85
2022/06/13 12:42:57;;;;;;;7.03;2.20;;;;;;;24.09;33.06;99402.56;5101508;28;20487;-84
2022/06/13 12:46:08;;;;;;;5.63;1.17;;;;;;;24.44;31.50;99419.69;5103904;28;20052;-86
2022/06/13 12:48:47;;;;;;;4.15;1.30;;;;;;;24.91;32.26;99421.56;5094453;28;20048;-86
2022/06/13 12:51:25;;;;;;;4.97;1.20;;;;;;;24.98;29.70;99424.94;5094873;28;20099;-86
2022/06/13 12:54:30;;;;;;;5.38;1.25;;;;;;;24.00;31.89;99420.84;5091606;28;20602;-86
2022/06/13 12:57:06;;;;;;;3.50;1.58;;;;;;;23.73;31.84;99393.94;5094325;28;20047;-85
2022/06/13 12:59:54;;;;;;;1.73;0.90;;;;;;;23.66;32.91;99410.81;5094372;28;20109;-84
2022/06/13 13:06:06;;;;;;;7.22;1.20;;;;;;;25.15;31.72;99401.59;5092953;28;20048;-86
2022/06/13 13:08:59;;;;;;;3.00;0.80;;;;;;;25.60;31.02;99422.25;5074020;28;20060;-88
2022/06/13 13:12:19;;;;;;;;;;;;;;;;;;;;;
2022/06/13 13:14:56;;;;;;;5.20;1.10;;;;;;;24.88;29.63;99427.66;5094085;28;20044;-86
2022/06/13 13:17:41;;;;;;;0.90;0.73;;;;;;;25.16;30.67;99408.84;5094468;28;20616;-85
2022/06/13 13:20:15;;;;;;;3.28;1.10;;;;;;;25.47;29.35;99403.34;5092103;28;20046;-85
2022/06/13 13:22:49;;;;;;;3.70;0.93;;;;;;;25.49;29.51;99393.59;5093865;28;20052;-85
2022/06/13 13:25:29;;;;;;;4.28;1.02;;;;;;;25.44;30.98;99400.00;5094083;28;20058;-86
2022/06/13 13:28:04;;;;;;;4.57;1.33;;;;;;;25.44;30.10;99411.13;5094028;28;20059;-85
2022/06/13 13:30:38;;;;;;;6.97;1.35;;;;;;;25.60;29.01;99388.84;5093968;28;20054;-86
2022/06/13 13:33:24;;;;;;;3.45;0.93;;;;;;;25.68;29.59;99402.19;5093876;28;20062;-84
2022/06/13 13:35:55;;;;;;;9.50;1.33;;;;;;;25.46;29.71;99404.44;5093440;28;20153;-84
2022/06/13 13:38:33;;;;;;;3.67;1.15;;;;;;;25.17;29.40;99389.09;5093754;28;20131;-84
2022/06/13 13:41:03;;;;;;;5.70;1.45;;;;;;;24.94;30.00;99412.66;5093948;28;20472;-84
2022/06/13 13:43:35;;;;;;;3.60;1.13;;;;;;;24.78;29.97;99422.94;5093252;28;20054;-84
2022/06/13 13:52:22;;;;;;;2.45;1.08;;;;;;;25.50;28.78;99403.59;5071153;28;20106;-85
2022/06/13 13:54:52;;;;;;;6.90;1.35;;;;;;;25.49;29.03;99423.34;5075459;28;20093;-85
2022/06/13 13:58:09;;;;;;;4.13;1.40;;;;;;;25.00;30.37;99396.84;5077256;28;20131;-84
2022/06/13 14:00:52;;;;;;;6.15;1.30;;;;;;;24.74;29.79;99388.44;5067212;28;20056;-82
2022/06/13 14:03:36;;;;;;;3.50;1.27;;;;;;;25.12;30.54;99407.72;5076485;28;20395;-85
2022/06/13 14:06:09;;;;;;;4.10;1.20;;;;;;;25.49;31.04;99401.09;5077347;28;20063;-85
2022/06/13 14:08:38;;;;;;;4.38;1.30;;;;;;;25.83;30.04;99411.66;5077250;28;20054;-85
2022/06/13 14:11:09;;;;;;;4.40;1.50;;;;;;;25.87;29.04;99393.28;5076940;28;20475;-85
2022/06/13 14:13:38;;;;;;;6.28;1.40;;;;;;;25.65;29.71;99386.06;5076677;28;20064;-85
2022/06/13 14:16:29;;;;;;;6.18;1.33;;;;;;;25.91;29.44;99374.88;5075927;28;20040;-85
2022/06/13 14:19:11;;;;;;;4.60;1.13;;;;;;;26.81;29.03;99393.59;5088127;28;20054;-85
2022/06/13 14:22:00;;;;;;;3.30;1.40;;;;;;;26.64;28.47;99407.03;5097459;28;20445;-85
2022/06/13 14:37:06;;;;;;;4.72;2.28;;;;;;;26.40;28.63;99381.75;5035295;28;20048;-87
2022/06/13 14:39:51;;;;;;;4.13;1.30;;;;;;;26.50;28.52;99388.13;5072004;28;20060;-85
2022/06/13 14:42:43;;;;;;;6.60;1.38;;;;;;;26.72;28.51;99388.91;5076706;28;20132;-88
2022/06/13 14:45:13;;;;;;;3.30;1.83;;;;;;;26.66;29.82;99362.97;5084898;28;20057;-88
2022/06/13 14:47:52;;;;;;;;;;;;;;;26.98;27.55;99384.84;5097130;28;20480;-86
2022/06/13 14:50:41;;;;;;;4.72;1.23;;;;;;;26.49;27.88;99392.03;5096873;28;19927;-83
2022/06/13 14:53:38;;;;;;;3.60;1.42;;;;;;;26.22;27.74;99386.00;5096254;28;20048;-85
2022/06/13 14:56:47;;;;;;;4.03;1.08;;;;;;;26.06;27.62;99383.25;5095768;28;20051;-84
2022/06/13 14:59:20;;;;;;;9.77;3.10;;;;;;;26.43;27.02;99381.19;5079480;28;20542;-85
2022/06/13 15:02:18;;;;;;;3.95;1.63;;;;;;;26.18;28.96;99363.47;5096304;28;20130;-84
2022/06/13 15:05:01;;;;;;;3.85;1.92;;;;;;;26.28;29.10;99376.50;5093121;28;20135;-86
2022/06/13 15:07:48;;;;;;;2.92;1.65;;;;;;;26.21;28.60;99370.41;5096107;28;20056;-83
2022/06/13 15:10:21;;;;;;;8.23;1.90;;;;;;;26.32;28.31;99369.25;5096600;28;20052;-84
2022/06/13 15:12:49;;;;;;;5.80;1.67;;;;;;;26.52;28.73;99373.06;5093187;28;20123;-84
2022/06/13 15:15:25;;;;;;;4.15;1.17;;;;;;;26.04;28.85;99367.94;5088944;28;20055;-86
2022/06/13 15:17:57;;;;;;;3.13;1.55;;;;;;;25.56;29.14;99368.25;5096455;28;20056;-86
2022/06/13 15:20:38;;;;;;;3.65;1.15;;;;;;;25.11;29.64;99351.22;5096168;28;20523;-86
2022/06/13 15:23:29;;;;;;;3.22;1.42;;;;;;;26.04;27.95;99379.09;5096098;28;20048;-86
2022/06/13 15:26:08;;;;;;;;;;;;;;;;;;;;;
2022/06/13 15:29:30;;;;;;;2.70;1.20;;;;;;;25.99;28.12;99363.22;5075541;28;20041;-85
2022/06/13 15:32:26;;;;;;;3.63;1.40;;;;;;;26.27;27.97;99369.25;4994295;28;20054;-86
2022/06/13 15:34:57;;;;;;;4.55;1.50;;;;;;;25.24;29.41;99367.38;4994390;28;20293;-82
2022/06/13 15:37:31;;;;;;;9.57;1.60;;;;;;;24.88;30.56;99355.38;5048943;28;20048;-84
2022/06/13 15:39:57;;;;;;;4.40;1.40;;;;;;;24.29;29.76;99370.44;5075818;28;20055;-83
2022/06/13 15:42:28;;;;;;;4.03;1.30;;;;;;;24.36;30.34;99354.38;5074729;28;20132;-86
2022/06/13 15:44:57;;;;;;;4.28;1.45;;;;;;;24.81;30.41;99365.91;5075483;28;20055;-84
2022/06/13 15:47:31;;;;;;;3.23;1.20;;;;;;;25.30;29.78;99370.22;5075032;28;20131;-84
2022/06/13 15:49:59;;;;;;;5.88;1.77;;;;;;;24.93;30.39;99358.19;5075347;28;20063;-82
2022/06/13 15:52:37;;;;;;;3.03;1.60;;;;;;;25.15;30.25;99357.09;5075450;28;20052;-85
2022/06/13 15:55:08;;;;;;;4.28;1.42;;;;;;;25.14;28.85;99341.50;5075871;28;20044;-83
2022/06/13 15:57:47;;;;;;;2.47;1.05;;;;;;;25.31;29.78;99363.53;5095193;28;20491;-83
2022/06/13 16:00:27;;;;;;;6.95;1.30;;;;;;;25.19;29.77;99345.13;5095126;28;20051;-84
2022/06/13 16:02:56;;;;;;;4.72;1.50;;;;;;;25.31;28.98;99355.16;5094885;28;20052;-83
2022/06/13 16:05:26;;;;;;;3.72;1.23;;;;;;;25.53;28.40;99336.25;5095579;28;20749;-84
2022/06/13 16:07:54;;;;;;;3.70;1.27;;;;;;;25.37;29.36;99359.66;5091062;28;20446;-83
2022/06/13 16:10:34;;;;;;;4.90;1.27;;;;;;;25.78;29.07;99354.88;5095063;28;20127;-84
2022/06/13 16:14:04;;;;;;;3.80;1.27;;;;;;;25.92;28.96;99355.09;5075574;28;20547;-84
2022/06/13 16:16:32;;;;;;;4.65;1.15;;;;;;;25.90;29.14;99346.22;5073767;28;20049;-84
2022/06/13 16:19:01;;;;;;;1.80;1.00;;;;;;;25.59;29.04;99351.00;5074893;28;20051;-84
2022/06/13 16:21:36;;;;;;;3.40;1.95;;;;;;;25.25;29.65;99352.38;5074902;28;20062;-85
2022/06/13 16:24:20;;;;;;;7.03;1.50;;;;;;;25.12;29.60;99340.97;5074467;28;20045;-84
2022/06/13 16:27:09;;;;;;;2.92;1.33;;;;;;;25.63;28.58;99334.59;5089522;28;20048;-85
2022/06/13 16:29:45;;;;;;;4.50;1.40;;;;;;;25.66;29.52;99323.72;5087120;28;20087;-85
2022/06/13 16:32:17;;;;;;;2.03;1.17;;;;;;;25.44;29.43;99347.13;5094897;28;20048;-85
2022/06/13 16:35:17;;;;;;;2.70;1.15;;;;;;;24.89;28.97;99352.31;5094878;28;20135;-85
2022/06/13 16:38:04;;;;;;;4.18;1.40;;;;;;;23.95;31.24;99338.34;5094715;28;20073;-82
2022/06/13 16:40:49;;;;;;;3.67;1.42;;;;;;;23.80;31.56;99327.09;5094917;28;20109;-84
2022/06/13 16:43:24;;;;;;;4.72;1.50;;;;;;;23.72;31.29;99361.75;5093086;28;20048;-82
2022/06/13 16:46:03;;;;;;;6.93;1.35;;;;;;;23.78;31.62;99349.56;5094534;28;20048;-85
2022/06/13 16:48:48;;;;;;;7.82;1.55;;;;;;;23.92;31.83;99347.22;5088923;28;20056;-86
2022/06/13 16:51:27;;;;;;;2.90;1.88;;;;;;;23.89;31.87;99328.28;5073327;28;20055;-85
2022/06/13 16:54:03;;;;;;;5.55;2.38;;;;;;;24.18;31.75;99362.06;5075070;28;20063;-85
2022/06/13 17:02:39;;;;;;;4.20;1.40;;;;;;;24.12;31.75;99352.03;5072134;28;20838;-85
2022/06/13 17:08:11;;;;;;;5.40;1.25;;;;;;;24.06;31.13;99349.47;5165010;27;20374;-84
2022/06/13 17:10:57;;;;;;;3.05;1.65;;;;;;;24.09;31.32;99354.50;5131879;28;20134;-85
2022/06/13 17:13:56;;;;;;;4.13;1.27;;;;;;;24.02;31.91;99333.34;5131602;28;20059;-84
2022/06/13 17:16:27;;;;;;;3.17;1.40;;;;;;;23.93;31.58;99315.53;5132023;28;20045;-85
2022/06/13 17:18:59;;;;;;;6.07;1.30;;;;;;;24.19;31.18;99354.56;5130461;27;20036;-84
2022/06/13 17:21:29;;;;;;;5.63;1.27;;;;;;;24.08;31.08;99350.88;5131937;27;20055;-84
2022/06/13 17:23:57;;;;;;;;;;;;;;;23.85;31.82;99354.94;5131844;28;20116;-83
2022/06/13 17:32:07;;;;;;;5.13;1.80;;;;;;;23.38;32.32;99339.88;5130590;27;20064;-85
2022/06/13 17:34:34;;;;;;;9.40;1.48;;;;;;;22.97;32.58;99337.53;5131388;28;20079;-84
2022/06/13 17:37:01;;;;;;;4.72;1.77;;;;;;;23.22;32.30;99349.97;5131520;28;20134;-85
2022/06/13 17:39:29;;;;;;;5.60;2.75;;;;;;;23.04;33.19;99337.31;5131676;28;20093;-84
2022/06/13 17:41:57;;;;;;;3.72;1.35;;;;;;;22.99;33.36;99337.28;5131373;28;20543;-85
2022/06/13 17:44:27;;;;;;;4.43;1.40;;;;;;;23.20;34.21;99346.66;5129935;27;20130;-84
2022/06/13 17:46:55;;;;;;;4.68;1.60;;;;;;;23.08;34.42;99355.09;5131050;28;20055;-85
2022/06/13 17:49:31;;;;;;;3.20;1.45;;;;;;;22.95;33.86;99355.53;5131398;28;20101;-86
2022/06/13 17:52:01;;;;;;;4.18;1.58;;;;;;;22.76;34.90;99341.19;5131410;28;20054;-85
2022/06/13 17:54:29;;;;;;;4.35;1.35;;;;;;;22.56;35.07;99339.03;5130583;28;20127;-85
2022/06/13 17:56:57;;;;;;;4.45;1.50;;;;;;;22.56;35.68;99350.13;5131563;28;20043;-85
2022/06/13 17:59:23;;;;;;;2.88;1.33;;;;;;;22.60;35.17;99356.81;5130157;27;20082;-85
2022/06/13 18:01:52;;;;;;;3.05;1.38;;;;;;;22.59;35.73;99364.28;5131037;28;20044;-85
2022/06/13 18:04:21;;;;;;;4.53;1.52;;;;;;;22.48;36.35;99368.03;5128282;27;20482;-84
2022/06/13 18:06:55;;;;;;;5.05;1.50;;;;;;;22.30;36.29;99348.94;5130808;28;20471;-84
2022/06/13 18:12:08;;;;;;;3.08;1.33;;;;;;;22.07;37.57;99362.78;5123660;27;20131;-85
2022/06/13 18:14:35;;;;;;;3.53;1.42;;;;;;;21.86;37.83;99352.50;5129410;27;20619;-85
2022/06/13 18:17:05;;;;;;;4.60;1.60;;;;;;;21.64;38.04;99360.75;5130706;28;20406;-85
2022/06/13 18:19:33;;;;;;;6.57;1.52;;;;;;;21.62;37.99;99355.47;5116610;28;20067;-84
2022/06/13 18:22:03;;;;;;;4.53;1.45;;;;;;;21.65;38.43;99346.69;5116869;27;20079;-85
2022/06/13 18:24:31;;;;;;;4.18;1.70;;;;;;;21.55;38.14;99361.16;5116794;28;20506;-85
2022/06/13 18:27:04;;;;;;;2.05;1.25;;;;;;;21.63;38.36;99375.69;5116776;28;20402;-85
2022/06/13 18:29:37;;;;;;;6.55;1.38;;;;;;;21.48;39.42;99345.81;5114928;27;20058;-85
2022/06/13 18:32:05;;;;;;;8.70;1.67;;;;;;;21.44;39.55;99364.84;5116665;28;20487;-84
2022/06/13 18:34:32;;;;;;;9.18;1.80;;;;;;;21.37;40.18;99380.75;5116335;28;20043;-85
2022/06/13 18:36:59;;;;;;;4.25;1.50;;;;;;;21.10;40.94;99353.75;5116453;28;20126;-85
2022/06/13 18:39:33;;;;;;;7.47;1.80;;;;;;;20.84;41.63;99350.53;5116630;28;20050;-85
2022/06/13 18:42:38;;;;;;;;;;;;;;;;;;;;;
2022/06/13 18:45:09;;;;;;;7.47;1.92;;;;;;;20.70;41.75;99382.31;5116122;28;20047;-85
2022/06/13 18:47:36;;;;;;;8.60;2.22;;;;;;;20.72;41.82;99368.25;5116143;28;20047;-85
2022/06/13 18:50:04;;;;;;;6.28;1.90;;;;;;;20.69;41.80;99384.22;5116439;28;20063;-84
2022/06/13 18:52:30;;;;;;;6.50;1.90;;;;;;;20.54;42.57;99375.63;5115876;28;20203;-82
2022/06/13 18:54:58;;;;;;;6.07;2.53;;;;;;;20.67;44.03;99374.50;5117360;27;20475;-82
2022/06/13 18:57:25;;;;;;;6.43;2.40;;;;;;;20.65;43.58;99371.13;5121308;28;20046;-83